Time;durP1;ratioP1;P1;durP2;ratioP2;P2;SDS_P1;SDS_P2;PMS_P1;PMS_P2;Temp;Humidity;BMP_temperature;BMP_pressure;BME280_temperature;BME280_humidity;BME280_pressure;Samples;Min_cycle;Max_cycle;Signal;HPM_P1;HPM_P2
2022/06/30 00:08:05;;;;;;;24.70;13.73;;;14.50;99.90;;;;;;20809425;28;20079;-55
2022/06/30 00:18:08;;;;;;;26.25;14.43;;;14.40;99.90;;;;;;20792487;28;20378;-55
2022/06/30 00:28:10;;;;;;;34.08;15.82;;;14.40;99.90;;;;;;20792409;28;20053;-49
2022/06/30 00:38:14;;;;;;;28.40;14.60;;;14.40;99.90;;;;;;20818252;28;20044;-47
2022/06/30 00:48:18;;;;;;;25.15;14.00;;;14.30;99.90;;;;;;20983414;28;20101;-54
2022/06/30 00:58:22;;;;;;;28.73;16.13;;;14.40;99.90;;;;;;21048163;28;20032;-56
2022/06/30 01:08:26;;;;;;;33.42;17.55;;;14.30;99.90;;;;;;21062016;28;20115;-47
2022/06/30 01:18:29;;;;;;;36.17;17.30;;;14.20;99.90;;;;;;21062220;28;20051;-56
2022/06/30 01:28:31;;;;;;;31.98;17.25;;;14.20;99.90;;;;;;21061492;28;20093;-57
2022/06/30 01:38:33;;;;;;;33.72;15.27;;;14.00;99.90;;;;;;21060596;28;20040;-48
2022/06/30 01:48:37;;;;;;;38.47;18.38;;;14.00;99.90;;;;;;21040157;28;20090;-58
2022/06/30 01:58:39;;;;;;;38.90;18.75;;;14.00;99.90;;;;;;20975534;28;20049;-55
2022/06/30 02:08:42;;;;;;;32.88;16.60;;;13.90;99.90;;;;;;20974631;28;20040;-47
2022/06/30 02:18:44;;;;;;;37.28;18.27;;;13.80;99.90;;;;;;20972392;28;20052;-56
2022/06/30 02:28:47;;;;;;;38.22;18.52;;;13.80;99.90;;;;;;20973065;28;20759;-55
2022/06/30 02:38:49;;;;;;;24.15;13.73;;;13.70;99.90;;;;;;20972234;28;20033;-53
2022/06/30 02:48:52;;;;;;;35.85;19.40;;;13.60;99.90;;;;;;20993129;28;20040;-52
2022/06/30 02:58:55;;;;;;;30.73;17.45;;;13.50;99.90;;;;;;21053995;28;20031;-49
2022/06/30 03:08:59;;;;;;;31.13;15.65;;;13.60;99.90;;;;;;21053377;28;20032;-55
2022/06/30 03:19:01;;;;;;;25.92;15.07;;;13.80;99.90;;;;;;21052184;28;20078;-54
2022/06/30 03:29:04;;;;;;;28.95;15.70;;;13.60;99.90;;;;;;21052200;28;20051;-49
2022/06/30 03:39:06;;;;;;;25.08;12.05;;;13.70;99.90;;;;;;21051758;28;20028;-56
2022/06/30 03:49:09;;;;;;;24.60;14.70;;;14.00;99.90;;;;;;21026849;28;20060;-48
2022/06/30 03:59:11;;;;;;;21.50;11.90;;;14.00;99.90;;;;;;20967046;28;20093;-56
2022/06/30 04:09:14;;;;;;;22.05;12.30;;;14.10;99.90;;;;;;20966594;28;20110;-53
2022/06/30 04:19:16;;;;;;;28.75;14.55;;;14.20;99.90;;;;;;20966117;28;20049;-56
2022/06/30 04:29:19;;;;;;;24.83;13.73;;;14.10;99.90;;;;;;20965543;28;20403;-55
2022/06/30 04:39:21;;;;;;;24.55;12.82;;;14.20;99.90;;;;;;20974036;28;20037;-55
2022/06/30 04:49:27;;;;;;;24.00;13.00;;;14.40;99.90;;;;;;21008632;28;20498;-55
2022/06/30 04:59:30;;;;;;;22.48;13.25;;;14.40;99.90;;;;;;21063867;28;20066;-53
2022/06/30 05:09:33;;;;;;;20.92;12.50;;;14.60;99.90;;;;;;21063130;28;20398;-53
2022/06/30 05:19:35;;;;;;;18.63;10.07;;;14.70;99.90;;;;;;21062308;28;20094;-49
2022/06/30 05:29:38;;;;;;;17.25;8.93;;;14.90;99.90;;;;;;21061708;28;20036;-50
2022/06/30 05:39:40;;;;;;;21.52;11.68;;;15.10;99.90;;;;;;21060847;28;20549;-57
2022/06/30 05:49:43;;;;;;;17.65;10.52;;;15.40;99.90;;;;;;21029640;28;20037;-57
2022/06/30 05:59:46;;;;;;;21.05;11.57;;;16.20;99.90;;;;;;20975404;28;20033;-56
2022/06/30 06:09:48;;;;;;;16.77;9.75;;;16.20;99.90;;;;;;20974710;28;20106;-58
2022/06/30 06:19:51;;;;;;;15.98;8.13;;;17.20;99.90;;;;;;20973999;28;20074;-59
2022/06/30 06:29:53;;;;;;;9.40;5.65;;;21.60;99.90;;;;;;20974048;28;20044;-58
2022/06/30 06:39:56;;;;;;;8.60;5.03;;;27.00;99.90;;;;;;20972259;28;20036;-57
2022/06/30 06:49:58;;;;;;;11.85;7.05;;;27.60;99.90;;;;;;21002673;28;20089;-58
2022/06/30 07:00:05;;;;;;;11.00;7.73;;;29.90;94.60;;;;;;21054377;28;20066;-60
2022/06/30 07:10:09;;;;;;;12.77;7.55;;;30.40;91.80;;;;;;21053403;28;20478;-60
2022/06/30 07:20:12;;;;;;;13.10;7.47;;;30.80;91.70;;;;;;21052551;28;20077;-59
2022/06/30 07:30:14;;;;;;;13.10;8.33;;;31.40;89.70;;;;;;21051955;28;20070;-58
2022/06/30 07:40:17;;;;;;;10.70;6.47;;;29.10;91.60;;;;;;21051638;28;20081;-58
2022/06/30 07:50:20;;;;;;;9.23;5.90;;;28.50;92.10;;;;;;21017429;28;20454;-58
2022/06/30 08:00:24;;;;;;;12.95;6.65;;;26.70;94.80;;;;;;20966785;28;20040;-57
2022/06/30 08:10:27;;;;;;;10.15;5.40;;;25.10;96.40;;;;;;20968860;28;20085;-60
2022/06/30 08:20:29;;;;;;;11.30;6.30;;;24.80;98.10;;;;;;20985456;28;20044;-60
2022/06/30 08:30:32;;;;;;;9.55;6.03;;;24.40;99.70;;;;;;20982293;28;20032;-61
2022/06/30 08:51:05;;;;;;;39.10;7.47;;;28.10;97.10;;;;;;21019809;28;20039;-61
2022/06/30 09:01:08;;;;;;;9.75;7.18;;;28.80;94.60;;;;;;21063959;28;20101;-60
2022/06/30 09:11:11;;;;;;;14.07;8.02;;;27.50;95.90;;;;;;21062969;28;20551;-61
2022/06/30 09:21:16;;;;;;;15.23;7.80;;;25.80;98.40;;;;;;21061788;28;20066;-59
2022/06/30 09:31:35;;;;;;;13.83;7.27;;;27.00;99.90;;;;;;21061579;28;20494;-61
2022/06/30 09:41:39;;;;;;;15.05;9.50;;;29.00;96.10;;;;;;21060605;28;20040;-60
2022/06/30 09:51:42;;;;;;;18.23;9.95;;;28.50;95.00;;;;;;21034514;28;20036;-60
2022/06/30 10:01:51;;;;;;;18.85;9.15;;;26.50;96.30;;;;;;20994231;28;20451;-60
2022/06/30 10:11:55;;;;;;;13.57;9.07;;;25.20;97.90;;;;;;21022297;28;20036;-59
2022/06/30 10:21:59;;;;;;;14.55;8.85;;;25.10;99.20;;;;;;20990221;28;20048;-61
2022/06/30 10:32:09;;;;;;;17.23;10.00;;;26.40;99.90;;;;;;20989285;28;20037;-63
2022/06/30 10:42:50;;;;;;;17.05;9.75;;;29.00;97.70;;;;;;20989083;28;20398;-62
2022/06/30 10:52:52;;;;;;;16.02;8.18;;;30.10;94.60;;;;;;20905387;28;20557;-61
2022/06/30 11:02:55;;;;;;;17.17;9.80;;;30.00;93.40;;;;;;20904762;28;20037;-62
2022/06/30 11:12:58;;;;;;;14.60;9.55;;;30.00;93.50;;;;;;20887409;28;20102;-62
2022/06/30 11:23:02;;;;;;;15.30;8.95;;;30.20;93.90;;;;;;20886645;28;20049;-62
2022/06/30 11:33:04;;;;;;;13.82;7.30;;;30.90;93.10;;;;;;20869267;28;20389;-62
2022/06/30 11:43:21;;;;;;;12.93;7.43;;;31.10;92.20;;;;;;20888831;28;20082;-62
2022/06/30 11:53:24;;;;;;;11.23;5.90;;;31.20;93.60;;;;;;20810325;28;20114;-61
2022/06/30 12:03:26;;;;;;;12.05;6.13;;;30.20;92.00;;;;;;20809925;28;20094;-62
2022/06/30 12:13:30;;;;;;;13.02;6.40;;;30.70;92.10;;;;;;20793174;28;20203;-60
2022/06/30 12:23:34;;;;;;;10.27;4.90;;;29.90;91.20;;;;;;20752368;28;20045;-61
2022/06/30 12:33:40;;;;;;;14.40;4.38;;;29.40;91.00;;;;;;20874735;28;20052;-62
2022/06/30 12:43:45;;;;;;;7.90;5.47;;;30.00;92.80;;;;;;20882465;28;20113;-61
2022/06/30 12:53:58;;;;;;;12.20;3.33;;;30.20;92.70;;;;;;20956318;28;20040;-63
2022/06/30 13:04:01;;;;;;;8.32;3.58;;;30.20;91.10;;;;;;20975440;28;20102;-63
2022/06/30 13:14:05;;;;;;;9.38;3.70;;;30.30;91.20;;;;;;20978919;28;20487;-63
2022/06/30 13:24:09;;;;;;;9.80;3.55;;;30.70;90.10;;;;;;20978396;28;20491;-63
2022/06/30 13:34:13;;;;;;;6.70;2.70;;;30.70;87.00;;;;;;20977565;28;20063;-62
2022/06/30 13:44:19;;;;;;;4.72;2.60;;;30.30;88.40;;;;;;20976600;28;20478;-62
2022/06/30 13:54:22;;;;;;;10.15;3.60;;;30.40;87.70;;;;;;20976350;28;20040;-61
2022/06/30 14:04:26;;;;;;;5.47;2.47;;;30.30;86.50;;;;;;20956169;28;20036;-62
2022/06/30 14:14:29;;;;;;;8.75;2.53;;;30.00;88.60;;;;;;20973575;28;20044;-61
2022/06/30 14:24:31;;;;;;;8.25;2.88;;;29.40;87.70;;;;;;20973701;28;20177;-59
2022/06/30 14:34:36;;;;;;;7.60;3.22;;;29.70;87.00;;;;;;20973295;28;20071;-60
2022/06/30 14:44:39;;;;;;;8.68;2.97;;;28.90;85.30;;;;;;20957347;28;20176;-61
2022/06/30 14:54:43;;;;;;;6.05;2.40;;;29.20;86.20;;;;;;20888659;28;20086;-60
2022/06/30 15:04:46;;;;;;;7.53;3.70;;;28.90;86.30;;;;;;20887654;28;20063;-60
2022/06/30 15:14:48;;;;;;;6.10;3.80;;;27.30;91.50;;;;;;20886560;28;20045;-61
2022/06/30 15:24:50;;;;;;;7.13;4.00;;;27.60;91.00;;;;;;20886352;28;20483;-60
2022/06/30 15:34:54;;;;;;;10.30;3.80;;;28.60;87.30;;;;;;20885827;28;20098;-55
2022/06/30 15:44:57;;;;;;;7.28;4.50;;;27.30;91.80;;;;;;20903683;28;20082;-60
2022/06/30 15:54:59;;;;;;;9.38;4.95;;;27.20;91.30;;;;;;20967450;28;20102;-60
2022/06/30 16:05:01;;;;;;;8.10;4.28;;;26.60;92.00;;;;;;20966928;28;20063;-60
2022/06/30 16:15:05;;;;;;;9.38;5.60;;;25.60;94.90;;;;;;20967139;28;20075;-60
2022/06/30 16:25:08;;;;;;;11.05;5.75;;;25.10;95.50;;;;;;20966202;28;20036;-59
2022/06/30 16:35:11;;;;;;;10.77;5.43;;;24.80;96.50;;;;;;20974168;28;20041;-60
2022/06/30 16:45:15;;;;;;;8.68;5.45;;;25.00;96.60;;;;;;20960773;28;20098;-59
2022/06/30 16:55:18;;;;;;;8.60;5.93;;;24.90;96.10;;;;;;20897919;28;20480;-59
2022/06/30 17:05:20;;;;;;;13.00;6.00;;;24.00;96.80;;;;;;20741044;28;20049;-59
2022/06/30 17:15:23;;;;;;;13.45;6.22;;;22.80;97.90;;;;;;20722408;28;20449;-59
2022/06/30 17:25:26;;;;;;;10.98;6.07;;;21.70;99.80;;;;;;20718268;28;20097;-58
2022/06/30 17:35:28;;;;;;;9.93;5.75;;;20.70;99.90;;;;;;20734023;28;20427;-58
2022/06/30 17:45:31;;;;;;;7.88;5.22;;;19.80;99.90;;;;;;20822200;28;20396;-58
2022/06/30 17:55:35;;;;;;;9.25;3.83;;;19.00;99.90;;;;;;20888712;28;20041;-58
2022/06/30 18:05:39;;;;;;;13.38;3.95;;;18.40;99.90;;;;;;20888162;28;20376;-50
2022/06/30 18:15:41;;;;;;;13.17;3.70;;;18.10;99.90;;;;;;20839665;28;1392039;-58
2022/06/30 18:25:44;;;;;;;8.07;3.70;;;17.80;99.90;;;;;;20891329;28;20086;-57
2022/06/30 18:35:47;;;;;;;11.65;5.05;;;17.40;99.90;;;;;;20905461;28;20036;-58
2022/06/30 18:45:50;;;;;;;8.38;4.50;;;17.00;99.90;;;;;;20859741;28;20033;-57
2022/06/30 18:55:52;;;;;;;6.60;3.92;;;17.00;99.90;;;;;;20871014;28;20064;-57
2022/06/30 19:05:55;;;;;;;9.50;4.47;;;16.80;99.90;;;;;;20883991;28;20060;-57
2022/06/30 19:16:00;;;;;;;6.70;2.78;;;16.60;99.90;;;;;;20911098;28;20494;-57
2022/06/30 19:26:06;;;;;;;4.53;2.63;;;16.40;99.90;;;;;;20883817;28;20497;-53
2022/06/30 19:36:10;;;;;;;6.40;2.88;;;16.30;99.90;;;;;;20885472;28;20036;-57
2022/06/30 19:46:15;;;;;;;5.07;3.20;;;16.30;99.90;;;;;;20882457;28;20071;-57
2022/06/30 19:56:18;;;;;;;6.70;3.10;;;16.10;99.90;;;;;;20908616;28;20572;-57
2022/06/30 20:06:21;;;;;;;7.13;3.00;;;16.10;99.90;;;;;;20905103;28;20492;-57
2022/06/30 20:16:29;;;;;;;4.65;2.90;;;15.90;99.90;;;;;;20912273;28;20056;-49
2022/06/30 20:26:33;;;;;;;6.90;3.20;;;15.90;99.90;;;;;;20892265;28;20041;-57
2022/06/30 20:36:35;;;;;;;6.18;4.28;;;15.60;99.90;;;;;;20882884;28;20032;-49
2022/06/30 20:46:39;;;;;;;5.82;3.28;;;15.40;99.90;;;;;;20898917;28;20029;-56
2022/06/30 20:56:59;;;;;;;5.60;3.20;;;15.20;99.90;;;;;;20877370;28;20088;-57
2022/06/30 21:07:05;;;;;;;6.28;2.95;;;14.90;99.90;;;;;;20948115;28;20394;-56
2022/06/30 21:17:08;;;;;;;6.90;2.58;;;14.80;99.90;;;;;;20941351;28;20095;-50
2022/06/30 21:34:51;;;;;;;;;;;14.70;99.90;;;;;;21136813;27;20393;-57
2022/06/30 21:44:54;;;;;;;2.90;1.83;;;14.90;99.90;;;;;;21135532;28;19912;-58
2022/06/30 21:54:56;;;;;;;4.90;2.15;;;15.30;99.90;;;;;;21038321;28;20071;-57
2022/06/30 22:04:59;;;;;;;4.53;2.10;;;15.50;99.90;;;;;;21054136;28;20551;-57
2022/06/30 22:15:03;;;;;;;4.57;1.85;;;15.70;99.90;;;;;;21053755;28;20481;-57
2022/06/30 22:25:05;;;;;;;5.82;2.95;;;15.80;99.90;;;;;;21089046;28;20105;-54
2022/06/30 22:35:08;;;;;;;3.92;2.00;;;15.60;99.90;;;;;;21136089;28;20088;-57
2022/06/30 22:45:10;;;;;;;5.22;3.22;;;15.60;99.90;;;;;;21084349;28;20092;-49
2022/06/30 22:55:13;;;;;;;8.63;4.72;;;15.20;99.90;;;;;;21077790;28;20036;-57
2022/06/30 23:05:15;;;;;;;10.88;4.80;;;15.00;99.90;;;;;;21077505;28;20044;-58
2022/06/30 23:15:19;;;;;;;10.43;6.13;;;14.80;99.90;;;;;;21077211;28;20036;-57
2022/06/30 23:25:21;;;;;;;10.60;6.28;;;14.70;99.90;;;;;;21075773;28;20497;-49
2022/06/30 23:35:23;;;;;;;13.60;8.07;;;14.70;99.90;;;;;;21075412;28;20393;-56
2022/06/30 23:45:26;;;;;;;12.65;7.97;;;14.70;99.90;;;;;;21074657;28;20101;-56
2022/06/30 23:55:29;;;;;;;13.57;9.05;;;15.00;99.90;;;;;;21072916;28;20065;-57
